East Union, Washington
Current Conditions -  °F | °C
As of 11:53 PM on Tuesday 21 Oct 2014 (Local Time) from KBFI Reporting Station
Overcast Overcast  
Wind Chill: 59°   Ceiling: 10000
Heat Index: 59°   Visibility: 10mi
Dew Point: 46°   Wind: 10mph
Humidity: 62%   Direction: 130°SE
Pressure: 29.74"   Gusts: NA
Location:  47.6108°N, 122.302°W
Report Text: KBFI 220653Z 13009KT 10SM SCT080 OVC100 15/08 A2974 RMK AO2 RAB34E49 SLP069 P0000 T01500078
Loading
Personal Weather Stations






























Interactive Weather Map New forecast layout! Learn more

10-Day Weather Forecast

Advertisements
Track Severe Weather on mobile